createdAt,value
2022-08-12T00:00:36.713Z,22.60
2022-08-12T00:03:23.369Z,22.60
2022-08-12T00:06:10.310Z,22.60
2022-08-12T00:08:58.018Z,22.50
2022-08-12T00:11:46.170Z,22.50
2022-08-12T00:14:34.349Z,22.50
2022-08-12T00:17:23.268Z,22.50
2022-08-12T00:20:10.879Z,22.50
2022-08-12T00:22:59.279Z,22.40
2022-08-12T00:26:21.073Z,22.40
2022-08-12T00:29:13.223Z,22.40
2022-08-12T00:32:03.012Z,22.40
2022-08-12T00:34:51.571Z,22.30
2022-08-12T00:37:43.009Z,22.30
2022-08-12T00:40:32.080Z,22.30
2022-08-12T00:43:00.145Z,22.30
2022-08-12T00:45:48.622Z,22.30
2022-08-12T00:48:17.374Z,22.30
2022-08-12T00:50:46.003Z,22.30
2022-08-12T00:53:13.982Z,22.30
2022-08-12T00:55:46.761Z,22.30
2022-08-12T00:58:21.394Z,22.20
2022-08-12T01:00:51.462Z,22.20
2022-08-12T01:03:22.564Z,22.20
2022-08-12T01:06:14.772Z,22.20
2022-08-12T01:09:01.062Z,22.10
2022-08-12T01:11:33.005Z,22.10
2022-08-12T01:14:03.010Z,22.00
2022-08-12T01:16:30.888Z,22.00
2022-08-12T01:18:59.258Z,22.00
2022-08-12T01:21:35.460Z,22.00
2022-08-12T01:24:32.148Z,21.90
2022-08-12T01:27:07.406Z,21.90
2022-08-12T01:29:42.771Z,21.90
2022-08-12T01:32:14.874Z,21.90
2022-08-12T01:35:04.412Z,21.90
2022-08-12T01:37:42.273Z,21.80
2022-08-12T01:40:36.210Z,21.80
2022-08-12T01:43:11.484Z,21.80
2022-08-12T01:46:07.913Z,21.80
2022-08-12T01:48:56.772Z,21.80
2022-08-12T01:52:15.013Z,21.80
2022-08-12T01:54:30.430Z,21.70
2022-08-12T01:57:58.770Z,21.70
2022-08-12T02:00:18.244Z,21.70
2022-08-12T02:02:48.241Z,21.70
2022-08-12T02:06:29.142Z,21.70
2022-08-12T02:09:20.114Z,21.60
2022-08-12T02:12:09.715Z,21.60
2022-08-12T02:14:48.897Z,21.60
2022-08-12T02:17:55.235Z,21.60
2022-08-12T02:20:43.864Z,21.50
2022-08-12T02:23:15.463Z,21.50
2022-08-12T02:25:49.298Z,21.50
2022-08-12T02:28:17.270Z,21.50
2022-08-12T02:30:44.645Z,21.50
2022-08-12T02:33:12.383Z,21.50
2022-08-12T02:35:40.665Z,21.50
2022-08-12T02:38:11.409Z,21.50
2022-08-12T02:40:42.951Z,21.50
2022-08-12T02:43:27.634Z,21.40
2022-08-12T02:46:04.990Z,21.40
2022-08-12T02:48:41.041Z,21.40
2022-08-12T02:51:13.117Z,21.40
2022-08-12T02:53:41.200Z,21.40
2022-08-12T02:56:08.962Z,21.40
2022-08-12T02:58:41.242Z,21.40
2022-08-12T03:01:10.295Z,21.40
2022-08-12T03:03:41.578Z,21.30
2022-08-12T03:06:23.933Z,21.30
2022-08-12T03:08:57.641Z,21.30
2022-08-12T03:11:49.019Z,21.30
2022-08-12T03:14:20.444Z,21.20
2022-08-12T03:16:58.397Z,21.20
2022-08-12T03:19:25.935Z,21.20
2022-08-12T03:22:08.672Z,21.20
2022-08-12T03:24:44.888Z,21.20
2022-08-12T03:27:15.320Z,21.10
2022-08-12T03:29:50.353Z,21.10
2022-08-12T03:32:36.162Z,21.10
2022-08-12T03:35:07.485Z,21.00
2022-08-12T03:37:38.249Z,21.00
2022-08-12T03:40:09.781Z,21.00
2022-08-12T03:42:52.274Z,20.90
2022-08-12T03:45:52.190Z,20.90
2022-08-12T03:48:40.169Z,20.90
2022-08-12T03:51:27.033Z,20.90
2022-08-12T03:54:13.675Z,20.90
2022-08-12T03:56:59.939Z,20.90
2022-08-12T03:59:46.149Z,20.90
2022-08-12T04:02:17.879Z,20.90
2022-08-12T04:04:47.416Z,20.80
2022-08-12T04:07:17.131Z,20.80
2022-08-12T04:09:46.594Z,20.80
2022-08-12T04:12:33.443Z,20.80
2022-08-12T04:15:05.701Z,20.70
2022-08-12T04:17:34.127Z,20.70
2022-08-12T04:20:01.566Z,20.70
2022-08-12T04:22:31.026Z,20.70
2022-08-12T04:25:06.331Z,20.70
2022-08-12T04:27:34.967Z,20.70
2022-08-12T04:30:29.654Z,20.70
2022-08-12T04:32:53.845Z,20.70
2022-08-12T04:35:21.720Z,20.70
2022-08-12T04:37:58.798Z,20.70
2022-08-12T04:40:33.232Z,20.70
2022-08-12T04:43:01.990Z,20.70
2022-08-12T04:45:31.683Z,20.70
2022-08-12T04:47:59.289Z,20.70
2022-08-12T04:50:36.061Z,20.60
2022-08-12T04:53:09.097Z,20.60
2022-08-12T04:55:39.018Z,20.70
2022-08-12T04:58:10.485Z,20.70
2022-08-12T05:00:39.272Z,20.70
2022-08-12T05:03:07.740Z,20.70
2022-08-12T05:05:38.133Z,20.70
2022-08-12T05:08:14.225Z,20.70
2022-08-12T05:10:43.101Z,20.80
2022-08-12T05:13:14.547Z,20.80
2022-08-12T05:16:02.522Z,20.90
2022-08-12T05:18:32.911Z,20.90
2022-08-12T05:21:02.625Z,21.00
2022-08-12T05:23:32.457Z,21.10
2022-08-12T05:26:01.383Z,21.10
2022-08-12T05:28:30.543Z,21.20
2022-08-12T05:31:01.947Z,21.30
2022-08-12T05:33:41.042Z,21.40
2022-08-12T05:36:15.137Z,21.40
2022-08-12T05:38:57.577Z,21.50
2022-08-12T05:41:31.288Z,21.60
2022-08-12T05:44:03.283Z,21.60
2022-08-12T05:46:34.010Z,21.70
2022-08-12T05:49:06.064Z,21.80
2022-08-12T05:51:40.322Z,21.90
2022-08-12T05:54:11.541Z,21.90
2022-08-12T05:56:40.916Z,22.00
2022-08-12T05:59:11.249Z,22.10
2022-08-12T06:02:10.114Z,22.20
2022-08-12T06:04:30.641Z,22.40
2022-08-12T06:06:58.103Z,22.50
2022-08-12T06:09:29.167Z,22.60
2022-08-12T06:12:06.214Z,22.70
2022-08-12T06:14:39.401Z,22.80
2022-08-12T06:17:10.388Z,23.00
2022-08-12T06:20:26.335Z,23.10
2022-08-12T06:22:26.954Z,23.20
2022-08-12T06:24:54.549Z,23.30
2022-08-12T06:27:22.148Z,23.50
2022-08-12T06:30:09.526Z,23.50
2022-08-12T06:32:51.802Z,23.60
2022-08-12T06:35:48.560Z,23.70
2022-08-12T06:38:22.491Z,23.80
2022-08-12T06:41:19.463Z,23.90
2022-08-12T06:44:04.717Z,24.00
2022-08-12T06:46:39.007Z,24.10
2022-08-12T06:49:07.029Z,24.20
2022-08-12T06:51:35.425Z,24.20
2022-08-12T06:54:02.954Z,24.30
2022-08-12T06:57:00.198Z,24.40
2022-08-12T06:59:21.630Z,24.60
2022-08-12T07:01:51.316Z,24.70
2022-08-12T07:04:37.857Z,24.90
2022-08-12T07:07:08.560Z,25.00
2022-08-12T07:10:04.804Z,25.30
2022-08-12T07:12:28.445Z,25.50
2022-08-12T07:14:58.695Z,25.70
2022-08-12T07:17:35.859Z,25.90
2022-08-12T07:20:29.879Z,26.10
2022-08-12T07:22:59.651Z,26.20
2022-08-12T07:25:37.510Z,26.40
2022-08-12T07:28:17.305Z,26.50
2022-08-12T07:30:49.422Z,26.50
2022-08-12T07:33:19.700Z,26.60
2022-08-12T07:35:48.501Z,26.60
2022-08-12T07:38:33.857Z,26.70
2022-08-12T07:41:04.113Z,26.70
2022-08-12T07:43:41.381Z,26.70
2022-08-12T07:46:12.773Z,26.70
2022-08-12T07:48:47.250Z,26.70
2022-08-12T07:51:24.777Z,26.70
2022-08-12T07:54:00.156Z,26.70
2022-08-12T07:56:31.944Z,26.70
2022-08-12T07:59:01.327Z,26.70
2022-08-12T08:01:29.426Z,26.70
2022-08-12T08:04:19.074Z,26.70
2022-08-12T08:06:48.624Z,26.60
2022-08-12T08:09:19.883Z,26.60
2022-08-12T08:12:06.897Z,26.60
2022-08-12T08:14:34.563Z,26.60
2022-08-12T08:17:06.744Z,26.60
2022-08-12T08:20:03.152Z,26.60
2022-08-12T08:22:40.694Z,26.60
2022-08-12T08:25:36.791Z,26.60
2022-08-12T08:28:04.345Z,26.60
2022-08-12T08:30:33.005Z,26.60
2022-08-12T08:33:01.308Z,26.70
2022-08-12T08:35:36.832Z,26.70
2022-08-12T08:38:31.704Z,26.70
2022-08-12T08:42:16.870Z,26.80
2022-08-12T08:44:06.205Z,26.80
2022-08-12T08:46:39.937Z,26.90
2022-08-12T08:49:08.452Z,26.90
2022-08-12T08:51:37.382Z,27.00
2022-08-12T08:54:08.919Z,27.00
2022-08-12T08:56:50.491Z,27.00
2022-08-12T08:59:20.056Z,27.10
2022-08-12T09:01:48.846Z,27.10
2022-08-12T09:05:09.238Z,27.20
2022-08-12T09:07:17.039Z,27.20
2022-08-12T09:10:01.905Z,27.20
2022-08-12T09:15:41.533Z,27.30
2022-08-12T09:18:12.006Z,27.30
2022-08-12T09:20:42.378Z,27.40
2022-08-12T09:23:57.173Z,27.40
2022-08-12T09:28:52.870Z,27.50
2022-08-12T09:32:02.778Z,27.50
2022-08-12T09:34:26.571Z,27.50
2022-08-12T09:37:02.364Z,27.60
2022-08-12T09:40:03.265Z,27.60
2022-08-12T09:42:56.808Z,27.60
2022-08-12T09:46:12.044Z,27.60
2022-08-12T09:48:22.017Z,27.60
2022-08-12T09:50:55.410Z,27.70
2022-08-12T09:53:29.277Z,27.70
2022-08-12T09:56:56.935Z,27.80
2022-08-12T09:59:00.208Z,27.80
2022-08-12T10:01:35.227Z,27.80
2022-08-12T10:04:19.572Z,27.80
2022-08-12T10:06:55.677Z,27.80
2022-08-12T10:10:03.907Z,27.90
2022-08-12T10:13:08.766Z,27.90
2022-08-12T10:16:00.976Z,27.90
2022-08-12T10:18:26.387Z,27.90
2022-08-12T10:20:54.065Z,27.90
2022-08-12T10:23:39.827Z,28.00
2022-08-12T10:26:37.831Z,28.00
2022-08-12T10:30:03.855Z,28.00
2022-08-12T10:32:44.009Z,28.00
2022-08-12T10:35:14.305Z,28.00
2022-08-12T10:38:32.186Z,28.00
2022-08-12T10:40:32.977Z,28.10
2022-08-12T10:43:20.464Z,28.10
2022-08-12T10:45:57.227Z,28.10
2022-08-12T10:48:34.213Z,28.10
2022-08-12T10:52:03.815Z,28.00
2022-08-12T10:54:00.902Z,28.00
2022-08-12T10:56:34.807Z,28.00
2022-08-12T10:59:05.614Z,28.00
2022-08-12T11:04:19.741Z,28.10
2022-08-12T11:04:44.976Z,28.10
2022-08-12T11:08:36.142Z,28.10
2022-08-12T11:10:06.341Z,28.10
2022-08-12T11:12:58.643Z,28.20
2022-08-12T11:16:04.014Z,28.10
2022-08-12T11:18:18.539Z,28.10
2022-08-12T11:20:48.709Z,28.20
2022-08-12T11:23:58.263Z,28.20
2022-08-12T11:26:29.208Z,28.20
2022-08-12T11:30:05.904Z,28.30
2022-08-12T11:32:38.882Z,28.30
2022-08-12T11:35:07.419Z,28.30
2022-08-12T11:37:39.972Z,28.30
2022-08-12T11:40:25.044Z,28.30
2022-08-12T11:42:53.150Z,28.40
2022-08-12T11:45:20.811Z,28.40
2022-08-12T11:47:49.280Z,28.40
2022-08-12T11:50:19.564Z,28.40
2022-08-12T11:53:57.842Z,28.40
2022-08-12T11:55:46.744Z,28.30
2022-08-12T11:59:08.426Z,28.30
2022-08-12T12:01:58.345Z,28.30
2022-08-12T12:03:50.562Z,28.30
2022-08-12T12:06:22.769Z,28.30
2022-08-12T12:08:53.615Z,28.40
2022-08-12T12:11:23.171Z,28.40
2022-08-12T12:14:08.228Z,28.40
2022-08-12T12:16:40.116Z,28.40
2022-08-12T12:19:19.202Z,28.40
2022-08-12T12:21:49.325Z,28.40
2022-08-12T12:24:22.459Z,28.40
2022-08-12T12:26:59.674Z,28.40
2022-08-12T12:30:18.139Z,28.40
2022-08-12T12:32:28.999Z,28.50
2022-08-12T12:35:14.227Z,28.50
2022-08-12T12:38:05.287Z,28.60
2022-08-12T12:40:44.058Z,28.60
2022-08-12T12:43:13.804Z,28.60
2022-08-12T12:45:44.587Z,28.60
2022-08-12T12:48:19.685Z,28.60
2022-08-12T12:51:13.071Z,28.60
2022-08-12T12:54:06.067Z,28.60
2022-08-12T12:56:42.834Z,28.60
2022-08-12T12:59:33.828Z,28.60
2022-08-12T13:02:08.205Z,28.50
2022-08-12T13:04:37.804Z,28.50
2022-08-12T13:07:06.830Z,28.50
2022-08-12T13:09:36.396Z,28.50
2022-08-12T13:12:11.486Z,28.40
2022-08-12T13:14:39.701Z,28.50
2022-08-12T13:17:14.676Z,28.50
2022-08-12T13:19:46.660Z,28.50
2022-08-12T13:22:21.381Z,28.50
2022-08-12T13:24:56.278Z,28.60
2022-08-12T13:27:35.136Z,28.60
2022-08-12T13:30:15.944Z,28.60
2022-08-12T13:32:57.533Z,28.70
2022-08-12T13:36:02.653Z,28.70
2022-08-12T13:38:26.586Z,28.70
2022-08-12T13:41:03.881Z,28.70
2022-08-12T13:43:41.190Z,28.70
2022-08-12T13:46:11.970Z,28.70
2022-08-12T13:48:45.056Z,28.70
2022-08-12T13:51:14.636Z,28.80
2022-08-12T13:53:58.910Z,28.80
2022-08-12T13:56:34.820Z,28.80
2022-08-12T13:59:08.715Z,28.80
2022-08-12T14:01:40.451Z,28.70
2022-08-12T14:04:12.300Z,28.70
2022-08-12T14:06:44.914Z,28.70
2022-08-12T14:09:18.102Z,28.70
2022-08-12T14:11:51.316Z,28.70
2022-08-12T14:14:31.410Z,28.70
2022-08-12T14:17:09.756Z,28.70
2022-08-12T14:20:00.726Z,28.70
2022-08-12T14:22:30.395Z,28.70
2022-08-12T14:24:59.202Z,28.70
2022-08-12T14:28:02.483Z,28.70
2022-08-12T14:30:28.722Z,28.60
2022-08-12T14:32:57.056Z,28.60
2022-08-12T14:35:24.747Z,28.70
2022-08-12T14:37:59.164Z,28.70
2022-08-12T14:40:33.786Z,28.70
2022-08-12T14:43:06.120Z,28.70
2022-08-12T14:45:45.560Z,28.70
2022-08-12T14:48:19.474Z,28.70
2022-08-12T14:52:16.010Z,28.70
2022-08-12T14:59:58.026Z,28.70
2022-08-12T15:02:34.791Z,28.60
2022-08-12T15:05:03.490Z,28.60
2022-08-12T15:07:34.091Z,28.60
2022-08-12T15:10:31.338Z,28.60
2022-08-12T15:13:06.917Z,28.60
2022-08-12T15:15:45.419Z,28.60
2022-08-12T15:18:23.100Z,28.60
2022-08-12T15:20:55.565Z,28.60
2022-08-12T15:23:28.881Z,28.60
2022-08-12T15:25:59.797Z,28.60
2022-08-12T15:28:32.292Z,28.60
2022-08-12T15:31:00.938Z,28.60
2022-08-12T15:33:44.767Z,28.60
2022-08-12T15:36:36.552Z,28.60
2022-08-12T15:39:16.369Z,28.50
2022-08-12T15:41:50.165Z,28.50
2022-08-12T15:44:38.061Z,28.50
2022-08-12T15:47:06.943Z,28.50
2022-08-12T15:49:54.644Z,28.40
2022-08-12T15:52:29.440Z,28.40
2022-08-12T15:55:06.408Z,28.40
2022-08-12T15:57:53.187Z,28.40
2022-08-12T16:00:33.896Z,28.30
2022-08-12T16:03:08.394Z,28.30
2022-08-12T16:06:12.496Z,28.30
2022-08-12T16:08:36.907Z,28.30
2022-08-12T16:11:07.153Z,28.30
2022-08-12T16:13:44.281Z,28.30
2022-08-12T16:16:23.973Z,28.30
2022-08-12T16:19:00.755Z,28.20
2022-08-12T16:21:51.907Z,28.30
2022-08-12T16:24:19.779Z,28.20
2022-08-12T16:26:51.409Z,28.20
2022-08-12T16:29:52.154Z,28.20
2022-08-12T16:32:31.254Z,28.30
2022-08-12T16:35:00.895Z,28.20
2022-08-12T16:38:04.647Z,28.20
2022-08-12T16:40:18.982Z,28.20
2022-08-12T16:42:53.885Z,28.20
2022-08-12T16:46:04.063Z,28.20
2022-08-12T16:48:35.729Z,28.20
2022-08-12T16:51:12.781Z,28.20
2022-08-12T16:53:43.414Z,28.20
2022-08-12T16:56:15.533Z,28.20
2022-08-12T16:58:43.667Z,28.20
2022-08-12T17:01:16.690Z,28.10
2022-08-12T17:04:08.569Z,28.10
2022-08-12T17:06:43.303Z,28.10
2022-08-12T17:09:17.035Z,28.10
2022-08-12T17:11:49.801Z,28.10
2022-08-12T17:14:20.403Z,28.10
2022-08-12T17:16:55.433Z,28.10
2022-08-12T17:20:28.809Z,28.10
2022-08-12T17:22:15.528Z,28.10
2022-08-12T17:24:50.517Z,28.10
2022-08-12T17:27:23.897Z,28.10
2022-08-12T17:30:02.257Z,28.10
2022-08-12T17:32:36.836Z,28.10
2022-08-12T17:35:29.837Z,28.10
2022-08-12T17:38:11.557Z,28.00
2022-08-12T17:40:41.324Z,28.00
2022-08-12T17:43:57.627Z,28.00
2022-08-12T17:46:00.360Z,28.00
2022-08-12T17:48:34.942Z,28.00
2022-08-12T17:51:15.508Z,28.00
2022-08-12T17:54:10.240Z,27.90
2022-08-12T17:56:37.562Z,27.90
2022-08-12T17:59:07.652Z,27.90
2022-08-12T18:01:37.178Z,27.90
2022-08-12T18:04:22.218Z,27.80
2022-08-12T18:06:58.828Z,27.80
2022-08-12T18:09:36.039Z,27.70
2022-08-12T18:12:28.954Z,27.70
2022-08-12T18:15:09.008Z,27.70
2022-08-12T18:17:43.179Z,27.70
2022-08-12T18:20:18.307Z,27.60
2022-08-12T18:22:55.690Z,27.60
2022-08-12T18:26:14.395Z,27.50
2022-08-12T18:28:43.353Z,27.50
2022-08-12T18:31:16.889Z,27.40
2022-08-12T18:33:46.799Z,27.40
2022-08-12T18:36:22.707Z,27.40
2022-08-12T18:38:56.148Z,27.40
2022-08-12T18:41:34.481Z,27.40
2022-08-12T18:44:22.768Z,27.30
2022-08-12T18:47:20.235Z,27.30
2022-08-12T18:49:54.357Z,27.30
2022-08-12T18:52:24.461Z,27.30
2022-08-12T18:54:59.364Z,27.20
2022-08-12T18:58:07.076Z,27.20
2022-08-12T19:00:21.535Z,27.20
2022-08-12T19:02:54.742Z,27.20
2022-08-12T19:05:53.173Z,27.20
2022-08-12T19:08:13.968Z,27.20
2022-08-12T19:10:50.282Z,27.20
2022-08-12T19:13:39.552Z,27.20
2022-08-12T19:16:12.643Z,27.20
2022-08-12T19:18:44.784Z,27.20
2022-08-12T19:21:16.562Z,27.10
2022-08-12T19:24:08.030Z,27.10
2022-08-12T19:26:37.052Z,27.10
2022-08-12T19:29:08.383Z,27.10
2022-08-12T19:31:58.284Z,27.00
2022-08-12T19:38:02.787Z,27.00
2022-08-12T19:40:31.760Z,27.00
2022-08-12T19:43:19.036Z,26.90
2022-08-12T19:45:56.630Z,26.90
2022-08-12T19:48:33.037Z,26.90
2022-08-12T19:51:22.667Z,26.90
2022-08-12T19:53:57.957Z,26.80
2022-08-12T19:56:30.314Z,26.80
2022-08-12T19:59:18.785Z,26.80
2022-08-12T20:02:03.124Z,26.70
2022-08-12T20:04:36.667Z,26.70
2022-08-12T20:07:23.804Z,26.60
2022-08-12T20:09:53.217Z,26.60
2022-08-12T20:12:31.789Z,26.50
2022-08-12T20:15:10.572Z,26.40
2022-08-12T20:18:19.288Z,26.40
2022-08-12T20:21:27.983Z,26.10
2022-08-12T20:24:12.110Z,26.00
2022-08-12T20:26:42.975Z,25.90
2022-08-12T20:29:14.199Z,25.80
2022-08-12T20:31:44.517Z,25.70
2022-08-12T20:34:12.636Z,25.60
2022-08-12T20:36:44.404Z,25.50
2022-08-12T20:39:34.026Z,25.40
2022-08-12T20:42:07.609Z,25.30
2022-08-12T20:44:40.759Z,25.30
2022-08-12T20:47:19.939Z,25.20
2022-08-12T20:49:55.480Z,25.10
2022-08-12T20:52:30.628Z,25.00
2022-08-12T20:55:03.324Z,24.90
2022-08-12T20:57:38.408Z,24.80
2022-08-12T21:00:22.550Z,24.70
2022-08-12T21:03:18.987Z,24.60
2022-08-12T21:06:13.093Z,24.60
2022-08-12T21:08:43.684Z,24.50
2022-08-12T21:11:11.422Z,24.50
2022-08-12T21:13:41.617Z,24.40
2022-08-12T21:16:14.243Z,24.40
2022-08-12T21:18:41.906Z,24.40
2022-08-12T21:21:23.591Z,24.30
2022-08-12T21:23:52.264Z,24.30
2022-08-12T21:26:24.259Z,24.30
2022-08-12T21:29:01.679Z,24.20
2022-08-12T21:32:40.816Z,24.20
2022-08-12T21:34:29.183Z,24.10
2022-08-12T21:37:13.153Z,24.10
2022-08-12T21:39:56.542Z,24.00
2022-08-12T21:42:27.753Z,23.90
2022-08-12T21:45:46.021Z,23.90
2022-08-12T21:47:44.532Z,23.80
2022-08-12T21:50:13.674Z,23.80
2022-08-12T21:52:42.120Z,23.80
2022-08-12T21:55:18.606Z,23.80
2022-08-12T21:57:54.427Z,23.70
2022-08-12T22:00:34.442Z,23.70
2022-08-12T22:04:02.162Z,23.70
2022-08-12T22:06:26.415Z,23.60
2022-08-12T22:09:15.427Z,23.50
2022-08-12T22:11:56.578Z,23.50
2022-08-12T22:14:28.699Z,23.50
2022-08-12T22:16:57.532Z,23.40
2022-08-12T22:19:25.007Z,23.40
2022-08-12T22:21:56.212Z,23.40
2022-08-12T22:24:30.024Z,23.40
2022-08-12T22:27:28.241Z,23.40
2022-08-12T22:30:17.075Z,23.30
2022-08-12T22:32:51.590Z,23.20
2022-08-12T22:35:55.438Z,23.20
2022-08-12T22:38:23.821Z,23.10
2022-08-12T22:41:01.647Z,23.10
2022-08-12T22:44:01.182Z,23.00
2022-08-12T22:46:53.090Z,23.00
2022-08-12T22:49:48.865Z,23.00
2022-08-12T22:52:18.455Z,22.90
2022-08-12T22:55:03.019Z,22.90
2022-08-12T22:57:49.816Z,22.90
2022-08-12T23:00:27.489Z,22.90
2022-08-12T23:03:02.761Z,22.80
2022-08-12T23:05:56.623Z,22.80
2022-08-12T23:08:30.147Z,22.80
2022-08-12T23:11:05.912Z,22.80
2022-08-12T23:13:45.985Z,22.70
2022-08-12T23:16:28.579Z,22.60
2022-08-12T23:19:18.218Z,22.60
2022-08-12T23:22:03.898Z,22.60
2022-08-12T23:24:36.525Z,22.60
2022-08-12T23:27:22.619Z,22.60
2022-08-12T23:30:17.389Z,22.60
2022-08-12T23:32:37.339Z,22.50
2022-08-12T23:35:07.166Z,22.50
2022-08-12T23:37:47.651Z,22.50
2022-08-12T23:40:22.089Z,22.50
2022-08-12T23:42:52.601Z,22.50
2022-08-12T23:45:30.794Z,22.50
2022-08-12T23:48:00.692Z,22.40
2022-08-12T23:50:34.575Z,22.40
2022-08-12T23:53:06.612Z,22.40
2022-08-12T23:55:45.605Z,22.30
2022-08-12T23:58:21.222Z,22.30
